sensor_id;sensor_type;location;lat;lon;timestamp;temperature;humidity
76040;SHT30;64736;50.462;4.850;2024-02-23T00:00:01;4.68;94.89
76040;SHT30;64736;50.462;4.850;2024-02-23T00:02:31;4.66;94.38
76040;SHT30;64736;50.462;4.850;2024-02-23T00:04:57;4.63;94.06
76040;SHT30;64736;50.462;4.850;2024-02-23T00:07:23;4.66;94.30
76040;SHT30;64736;50.462;4.850;2024-02-23T00:09:49;4.63;94.38
76040;SHT30;64736;50.462;4.850;2024-02-23T00:12:14;4.58;94.84
76040;SHT30;64736;50.462;4.850;2024-02-23T00:14:40;4.56;94.39
76040;SHT30;64736;50.462;4.850;2024-02-23T00:17:06;4.55;94.30
76040;SHT30;64736;50.462;4.850;2024-02-23T00:19:32;4.59;94.39
76040;SHT30;64736;50.462;4.850;2024-02-23T00:21:58;4.61;94.56
76040;SHT30;64736;50.462;4.850;2024-02-23T00:24:27;4.68;94.54
76040;SHT30;64736;50.462;4.850;2024-02-23T00:26:53;4.71;94.54
76040;SHT30;64736;50.462;4.850;2024-02-23T00:29:19;4.75;93.92
76040;SHT30;64736;50.462;4.850;2024-02-23T00:31:45;4.80;93.50
76040;SHT30;64736;50.462;4.850;2024-02-23T00:34:11;4.90;93.39
76040;SHT30;64736;50.462;4.850;2024-02-23T00:36:40;4.94;93.06
76040;SHT30;64736;50.462;4.850;2024-02-23T00:39:06;4.96;91.94
76040;SHT30;64736;50.462;4.850;2024-02-23T00:41:36;5.03;92.64
76040;SHT30;64736;50.462;4.850;2024-02-23T00:44:04;5.00;91.70
76040;SHT30;64736;50.462;4.850;2024-02-23T00:46:30;5.07;91.72
76040;SHT30;64736;50.462;4.850;2024-02-23T00:48:56;5.09;90.93
76040;SHT30;64736;50.462;4.850;2024-02-23T00:51:22;5.09;90.46
76040;SHT30;64736;50.462;4.850;2024-02-23T00:53:48;5.10;90.01
76040;SHT30;64736;50.462;4.850;2024-02-23T00:56:14;5.07;90.71
76040;SHT30;64736;50.462;4.850;2024-02-23T00:58:39;5.01;90.42
76040;SHT30;64736;50.462;4.850;2024-02-23T01:01:05;5.04;89.97
76040;SHT30;64736;50.462;4.850;2024-02-23T01:03:31;5.01;89.61
76040;SHT30;64736;50.462;4.850;2024-02-23T01:05:58;5.00;89.75
76040;SHT30;64736;50.462;4.850;2024-02-23T01:08:23;5.00;89.27
76040;SHT30;64736;50.462;4.850;2024-02-23T01:10:49;5.00;89.14
76040;SHT30;64736;50.462;4.850;2024-02-23T01:13:15;5.01;89.63
76040;SHT30;64736;50.462;4.850;2024-02-23T01:15:41;5.03;88.87
76040;SHT30;64736;50.462;4.850;2024-02-23T01:18:07;5.01;88.85
76040;SHT30;64736;50.462;4.850;2024-02-23T01:20:34;4.97;88.42
76040;SHT30;64736;50.462;4.850;2024-02-23T01:23:00;4.99;89.37
76040;SHT30;64736;50.462;4.850;2024-02-23T01:25:25;4.94;89.44
76040;SHT30;64736;50.462;4.850;2024-02-23T01:27:51;4.93;89.49
76040;SHT30;64736;50.462;4.850;2024-02-23T01:30:17;4.90;89.35
76040;SHT30;64736;50.462;4.850;2024-02-23T01:32:45;4.86;89.64
76040;SHT30;64736;50.462;4.850;2024-02-23T01:35:11;4.82;89.32
76040;SHT30;64736;50.462;4.850;2024-02-23T01:37:36;4.79;89.76
76040;SHT30;64736;50.462;4.850;2024-02-23T01:40:02;4.77;90.06
76040;SHT30;64736;50.462;4.850;2024-02-23T01:42:29;4.72;89.62
76040;SHT30;64736;50.462;4.850;2024-02-23T01:44:55;4.76;90.15
76040;SHT30;64736;50.462;4.850;2024-02-23T01:47:24;4.71;90.01
76040;SHT30;64736;50.462;4.850;2024-02-23T01:49:51;4.71;90.33
76040;SHT30;64736;50.462;4.850;2024-02-23T01:52:17;4.73;89.85
76040;SHT30;64736;50.462;4.850;2024-02-23T01:54:44;4.80;91.08
76040;SHT30;64736;50.462;4.850;2024-02-23T01:57:09;4.76;91.68
76040;SHT30;64736;50.462;4.850;2024-02-23T01:59:38;4.77;91.24
76040;SHT30;64736;50.462;4.850;2024-02-23T02:02:04;4.82;91.52
76040;SHT30;64736;50.462;4.850;2024-02-23T02:04:30;4.84;90.65
76040;SHT30;64736;50.462;4.850;2024-02-23T02:06:57;4.89;90.21
76040;SHT30;64736;50.462;4.850;2024-02-23T02:09:23;4.94;90.03
76040;SHT30;64736;50.462;4.850;2024-02-23T02:11:50;5.00;89.93
76040;SHT30;64736;50.462;4.850;2024-02-23T02:14:16;5.00;90.08
76040;SHT30;64736;50.462;4.850;2024-02-23T02:16:42;4.96;89.82
76040;SHT30;64736;50.462;4.850;2024-02-23T02:19:10;4.89;90.98
76040;SHT30;64736;50.462;4.850;2024-02-23T02:21:36;4.79;90.26
76040;SHT30;64736;50.462;4.850;2024-02-23T02:24:02;4.79;90.22
76040;SHT30;64736;50.462;4.850;2024-02-23T02:26:29;4.80;90.40
76040;SHT30;64736;50.462;4.850;2024-02-23T02:28:55;4.82;89.97
76040;SHT30;64736;50.462;4.850;2024-02-23T02:31:20;4.87;89.90
76040;SHT30;64736;50.462;4.850;2024-02-23T02:33:46;4.94;89.76
76040;SHT30;64736;50.462;4.850;2024-02-23T02:36:11;4.96;89.77
76040;SHT30;64736;50.462;4.850;2024-02-23T02:38:38;5.04;89.81
76040;SHT30;64736;50.462;4.850;2024-02-23T02:41:03;5.10;89.09
76040;SHT30;64736;50.462;4.850;2024-02-23T02:43:30;5.14;88.40
76040;SHT30;64736;50.462;4.850;2024-02-23T02:45:56;5.14;88.73
76040;SHT30;64736;50.462;4.850;2024-02-23T02:48:23;5.14;88.68
76040;SHT30;64736;50.462;4.850;2024-02-23T02:50:49;5.14;88.72
76040;SHT30;64736;50.462;4.850;2024-02-23T02:53:16;5.03;88.58
76040;SHT30;64736;50.462;4.850;2024-02-23T02:55:42;5.01;89.03
76040;SHT30;64736;50.462;4.850;2024-02-23T02:58:09;4.94;88.54
76040;SHT30;64736;50.462;4.850;2024-02-23T03:00:34;4.96;88.34
76040;SHT30;64736;50.462;4.850;2024-02-23T03:03:00;5.01;89.04
76040;SHT30;64736;50.462;4.850;2024-02-23T03:05:26;5.04;88.85
76040;SHT30;64736;50.462;4.850;2024-02-23T03:07:52;5.09;88.82
76040;SHT30;64736;50.462;4.850;2024-02-23T03:10:18;5.09;88.84
76040;SHT30;64736;50.462;4.850;2024-02-23T03:12:44;5.07;88.39
76040;SHT30;64736;50.462;4.850;2024-02-23T03:15:10;5.11;87.87
76040;SHT30;64736;50.462;4.850;2024-02-23T03:17:35;5.14;88.32
76040;SHT30;64736;50.462;4.850;2024-02-23T03:20:02;5.17;88.16
76040;SHT30;64736;50.462;4.850;2024-02-23T03:22:31;5.13;88.16
76040;SHT30;64736;50.462;4.850;2024-02-23T03:24:57;5.11;88.31
76040;SHT30;64736;50.462;4.850;2024-02-23T03:27:30;5.19;88.32
76040;SHT30;64736;50.462;4.850;2024-02-23T03:29:56;5.24;88.05
76040;SHT30;64736;50.462;4.850;2024-02-23T03:32:22;5.27;88.07
76040;SHT30;64736;50.462;4.850;2024-02-23T03:34:47;5.31;87.67
76040;SHT30;64736;50.462;4.850;2024-02-23T03:37:13;5.32;87.83
76040;SHT30;64736;50.462;4.850;2024-02-23T03:39:39;5.35;87.42
76040;SHT30;64736;50.462;4.850;2024-02-23T03:42:05;5.35;88.01
76040;SHT30;64736;50.462;4.850;2024-02-23T03:44:30;5.38;87.84
76040;SHT30;64736;50.462;4.850;2024-02-23T03:46:57;5.42;88.02
76040;SHT30;64736;50.462;4.850;2024-02-23T03:49:22;5.44;88.25
76040;SHT30;64736;50.462;4.850;2024-02-23T03:51:48;5.42;87.48
76040;SHT30;64736;50.462;4.850;2024-02-23T03:54:14;5.47;87.51
76040;SHT30;64736;50.462;4.850;2024-02-23T03:56:41;5.51;87.44
76040;SHT30;64736;50.462;4.850;2024-02-23T03:59:07;5.50;87.80
76040;SHT30;64736;50.462;4.850;2024-02-23T04:01:36;5.52;87.57
76040;SHT30;64736;50.462;4.850;2024-02-23T04:04:03;5.51;87.63
76040;SHT30;64736;50.462;4.850;2024-02-23T04:06:29;5.52;87.53
76040;SHT30;64736;50.462;4.850;2024-02-23T04:08:54;5.51;87.21
76040;SHT30;64736;50.462;4.850;2024-02-23T04:11:20;5.51;87.31
76040;SHT30;64736;50.462;4.850;2024-02-23T04:13:46;5.50;87.27
76040;SHT30;64736;50.462;4.850;2024-02-23T04:16:12;5.50;86.92
76040;SHT30;64736;50.462;4.850;2024-02-23T04:18:37;5.51;86.99
76040;SHT30;64736;50.462;4.850;2024-02-23T04:21:03;5.51;87.28
76040;SHT30;64736;50.462;4.850;2024-02-23T04:23:29;5.48;87.26
76040;SHT30;64736;50.462;4.850;2024-02-23T04:25:55;5.50;86.69
76040;SHT30;64736;50.462;4.850;2024-02-23T04:28:21;5.51;87.43
76040;SHT30;64736;50.462;4.850;2024-02-23T04:30:47;5.48;87.08
76040;SHT30;64736;50.462;4.850;2024-02-23T04:33:13;5.48;87.01
76040;SHT30;64736;50.462;4.850;2024-02-23T04:35:38;5.48;87.24
76040;SHT30;64736;50.462;4.850;2024-02-23T04:38:04;5.47;86.79
76040;SHT30;64736;50.462;4.850;2024-02-23T04:40:30;5.45;86.90
76040;SHT30;64736;50.462;4.850;2024-02-23T04:42:55;5.50;87.27
76040;SHT30;64736;50.462;4.850;2024-02-23T04:45:21;5.50;87.13
76040;SHT30;64736;50.462;4.850;2024-02-23T04:47:48;5.50;86.85
76040;SHT30;64736;50.462;4.850;2024-02-23T04:50:14;5.50;87.39
76040;SHT30;64736;50.462;4.850;2024-02-23T04:52:40;5.51;87.60
76040;SHT30;64736;50.462;4.850;2024-02-23T04:55:05;5.51;86.83
76040;SHT30;64736;50.462;4.850;2024-02-23T04:57:31;5.51;86.70
76040;SHT30;64736;50.462;4.850;2024-02-23T04:59:57;5.55;87.39
76040;SHT30;64736;50.462;4.850;2024-02-23T05:02:23;5.51;86.46
76040;SHT30;64736;50.462;4.850;2024-02-23T05:04:49;5.51;86.44
76040;SHT30;64736;50.462;4.850;2024-02-23T05:07:15;5.48;86.03
76040;SHT30;64736;50.462;4.850;2024-02-23T05:09:40;5.47;86.10
76040;SHT30;64736;50.462;4.850;2024-02-23T05:12:09;5.51;86.41
76040;SHT30;64736;50.462;4.850;2024-02-23T05:14:34;5.52;86.20
76040;SHT30;64736;50.462;4.850;2024-02-23T05:17:00;5.52;86.54
76040;SHT30;64736;50.462;4.850;2024-02-23T05:19:26;5.52;86.21
76040;SHT30;64736;50.462;4.850;2024-02-23T05:21:51;5.51;86.25
76040;SHT30;64736;50.462;4.850;2024-02-23T05:24:17;5.51;86.61
76040;SHT30;64736;50.462;4.850;2024-02-23T05:26:43;5.50;86.46
76040;SHT30;64736;50.462;4.850;2024-02-23T05:29:10;5.44;86.74
76040;SHT30;64736;50.462;4.850;2024-02-23T05:31:45;5.44;86.36
76040;SHT30;64736;50.462;4.850;2024-02-23T05:34:12;5.51;86.77
76040;SHT30;64736;50.462;4.850;2024-02-23T05:36:38;5.50;86.62
76040;SHT30;64736;50.462;4.850;2024-02-23T05:39:03;5.52;86.22
76040;SHT30;64736;50.462;4.850;2024-02-23T05:41:29;5.50;86.15
76040;SHT30;64736;50.462;4.850;2024-02-23T05:43:55;5.54;86.00
76040;SHT30;64736;50.462;4.850;2024-02-23T05:46:21;5.55;85.67
76040;SHT30;64736;50.462;4.850;2024-02-23T05:48:46;5.54;86.11
76040;SHT30;64736;50.462;4.850;2024-02-23T05:51:12;5.51;85.92
76040;SHT30;64736;50.462;4.850;2024-02-23T05:53:38;5.58;86.09
76040;SHT30;64736;50.462;4.850;2024-02-23T05:56:04;5.58;85.94
76040;SHT30;64736;50.462;4.850;2024-02-23T05:58:29;5.56;85.65
76040;SHT30;64736;50.462;4.850;2024-02-23T06:00:55;5.62;86.23
76040;SHT30;64736;50.462;4.850;2024-02-23T06:03:21;5.56;85.92
76040;SHT30;64736;50.462;4.850;2024-02-23T06:05:46;5.59;86.61
76040;SHT30;64736;50.462;4.850;2024-02-23T06:08:12;5.59;86.06
76040;SHT30;64736;50.462;4.850;2024-02-23T06:10:38;5.59;86.76
76040;SHT30;64736;50.462;4.850;2024-02-23T06:13:04;5.54;86.76
76040;SHT30;64736;50.462;4.850;2024-02-23T06:15:29;5.51;87.84
76040;SHT30;64736;50.462;4.850;2024-02-23T06:17:55;5.44;88.77
76040;SHT30;64736;50.462;4.850;2024-02-23T06:20:20;5.38;89.75
76040;SHT30;64736;50.462;4.850;2024-02-23T06:22:46;5.34;88.55
76040;SHT30;64736;50.462;4.850;2024-02-23T06:25:12;5.31;88.37
76040;SHT30;64736;50.462;4.850;2024-02-23T06:27:37;5.40;88.48
76040;SHT30;64736;50.462;4.850;2024-02-23T06:30:04;5.37;88.40
76040;SHT30;64736;50.462;4.850;2024-02-23T06:32:30;5.37;87.88
76040;SHT30;64736;50.462;4.850;2024-02-23T06:34:56;5.35;87.57
76040;SHT30;64736;50.462;4.850;2024-02-23T06:37:21;5.40;87.21
76040;SHT30;64736;50.462;4.850;2024-02-23T06:39:47;5.42;86.62
76040;SHT30;64736;50.462;4.850;2024-02-23T06:42:20;5.48;87.53
76040;SHT30;64736;50.462;4.850;2024-02-23T06:44:47;5.47;87.87
76040;SHT30;64736;50.462;4.850;2024-02-23T06:47:12;5.45;87.29
76040;SHT30;64736;50.462;4.850;2024-02-23T06:49:42;5.47;87.19
76040;SHT30;64736;50.462;4.850;2024-02-23T06:52:11;5.50;86.60
76040;SHT30;64736;50.462;4.850;2024-02-23T06:54:36;5.55;86.50
76040;SHT30;64736;50.462;4.850;2024-02-23T06:57:02;5.55;85.86
76040;SHT30;64736;50.462;4.850;2024-02-23T06:59:28;5.61;85.83
76040;SHT30;64736;50.462;4.850;2024-02-23T07:01:54;5.65;85.48
76040;SHT30;64736;50.462;4.850;2024-02-23T07:04:20;5.55;84.95
76040;SHT30;64736;50.462;4.850;2024-02-23T07:06:46;5.66;85.44
76040;SHT30;64736;50.462;4.850;2024-02-23T07:09:12;5.76;85.09
76040;SHT30;64736;50.462;4.850;2024-02-23T07:11:38;5.76;84.37
76040;SHT30;64736;50.462;4.850;2024-02-23T07:14:07;5.73;84.62
76040;SHT30;64736;50.462;4.850;2024-02-23T07:16:38;5.78;84.95
76040;SHT30;64736;50.462;4.850;2024-02-23T07:19:07;5.79;84.55
76040;SHT30;64736;50.462;4.850;2024-02-23T07:21:33;5.82;84.64
76040;SHT30;64736;50.462;4.850;2024-02-23T07:23:59;5.89;84.50
76040;SHT30;64736;50.462;4.850;2024-02-23T07:26:26;5.88;84.36
76040;SHT30;64736;50.462;4.850;2024-02-23T07:28:53;5.88;83.98
76040;SHT30;64736;50.462;4.850;2024-02-23T07:31:19;5.93;84.47
76040;SHT30;64736;50.462;4.850;2024-02-23T07:33:45;5.88;84.44
76040;SHT30;64736;50.462;4.850;2024-02-23T07:36:15;6.00;84.28
76040;SHT30;64736;50.462;4.850;2024-02-23T07:38:41;5.99;83.86
76040;SHT30;64736;50.462;4.850;2024-02-23T07:41:06;6.05;83.92
76040;SHT30;64736;50.462;4.850;2024-02-23T07:43:32;6.02;83.67
76040;SHT30;64736;50.462;4.850;2024-02-23T07:45:58;5.99;83.51
76040;SHT30;64736;50.462;4.850;2024-02-23T07:48:23;6.05;83.56
76040;SHT30;64736;50.462;4.850;2024-02-23T07:50:49;6.13;83.67
76040;SHT30;64736;50.462;4.850;2024-02-23T07:53:15;6.09;83.53
76040;SHT30;64736;50.462;4.850;2024-02-23T07:55:40;6.07;83.45
76040;SHT30;64736;50.462;4.850;2024-02-23T07:58:06;6.06;83.24
76040;SHT30;64736;50.462;4.850;2024-02-23T08:00:32;6.16;83.46
76040;SHT30;64736;50.462;4.850;2024-02-23T08:03:00;6.20;83.30
76040;SHT30;64736;50.462;4.850;2024-02-23T08:05:25;6.30;83.08
76040;SHT30;64736;50.462;4.850;2024-02-23T08:07:54;6.30;82.71
76040;SHT30;64736;50.462;4.850;2024-02-23T08:10:20;6.33;82.63
76040;SHT30;64736;50.462;4.850;2024-02-23T08:12:46;6.31;82.73
76040;SHT30;64736;50.462;4.850;2024-02-23T08:15:12;6.26;82.70
76040;SHT30;64736;50.462;4.850;2024-02-23T08:17:38;6.24;82.72
76040;SHT30;64736;50.462;4.850;2024-02-23T08:20:04;6.21;82.65
76040;SHT30;64736;50.462;4.850;2024-02-23T08:22:30;6.21;82.88
76040;SHT30;64736;50.462;4.850;2024-02-23T08:24:56;6.24;83.02
76040;SHT30;64736;50.462;4.850;2024-02-23T08:27:22;6.33;83.01
76040;SHT30;64736;50.462;4.850;2024-02-23T08:29:48;6.34;82.63
76040;SHT30;64736;50.462;4.850;2024-02-23T08:32:13;6.44;82.37
76040;SHT30;64736;50.462;4.850;2024-02-23T08:34:39;6.45;82.54
76040;SHT30;64736;50.462;4.850;2024-02-23T08:37:04;6.52;82.06
76040;SHT30;64736;50.462;4.850;2024-02-23T08:39:30;6.57;82.52
76040;SHT30;64736;50.462;4.850;2024-02-23T08:41:56;6.55;82.05
76040;SHT30;64736;50.462;4.850;2024-02-23T08:44:21;6.48;82.47
76040;SHT30;64736;50.462;4.850;2024-02-23T08:46:47;6.41;82.90
76040;SHT30;64736;50.462;4.850;2024-02-23T08:49:14;6.49;83.27
76040;SHT30;64736;50.462;4.850;2024-02-23T08:51:39;6.41;83.24
76040;SHT30;64736;50.462;4.850;2024-02-23T08:54:06;6.34;83.07
76040;SHT30;64736;50.462;4.850;2024-02-23T08:56:37;6.40;83.44
76040;SHT30;64736;50.462;4.850;2024-02-23T08:59:04;6.48;83.37
76040;SHT30;64736;50.462;4.850;2024-02-23T09:01:30;6.49;83.59
76040;SHT30;64736;50.462;4.850;2024-02-23T09:03:55;6.55;83.46
76040;SHT30;64736;50.462;4.850;2024-02-23T09:06:21;6.69;82.77
76040;SHT30;64736;50.462;4.850;2024-02-23T09:08:46;6.71;82.52
76040;SHT30;64736;50.462;4.850;2024-02-23T09:11:12;6.76;82.43
76040;SHT30;64736;50.462;4.850;2024-02-23T09:13:39;6.78;82.33
76040;SHT30;64736;50.462;4.850;2024-02-23T09:16:06;6.89;82.26
76040;SHT30;64736;50.462;4.850;2024-02-23T09:18:32;6.85;82.26
76040;SHT30;64736;50.462;4.850;2024-02-23T09:20:59;6.76;82.52
76040;SHT30;64736;50.462;4.850;2024-02-23T09:23:25;6.63;82.90
76040;SHT30;64736;50.462;4.850;2024-02-23T09:25:50;6.74;82.81
76040;SHT30;64736;50.462;4.850;2024-02-23T09:28:16;6.93;82.25
76040;SHT30;64736;50.462;4.850;2024-02-23T09:30:41;7.02;81.46
76040;SHT30;64736;50.462;4.850;2024-02-23T09:33:07;7.06;81.16
76040;SHT30;64736;50.462;4.850;2024-02-23T09:35:33;7.07;80.74
76040;SHT30;64736;50.462;4.850;2024-02-23T09:37:59;7.09;80.83
76040;SHT30;64736;50.462;4.850;2024-02-23T09:40:24;7.07;80.48
76040;SHT30;64736;50.462;4.850;2024-02-23T09:42:56;7.13;80.44
76040;SHT30;64736;50.462;4.850;2024-02-23T09:45:23;7.20;79.98
76040;SHT30;64736;50.462;4.850;2024-02-23T09:47:49;7.31;79.84
76040;SHT30;64736;50.462;4.850;2024-02-23T09:50:17;7.24;79.61
76040;SHT30;64736;50.462;4.850;2024-02-23T09:52:47;7.13;79.15
76040;SHT30;64736;50.462;4.850;2024-02-23T09:55:12;7.13;79.26
76040;SHT30;64736;50.462;4.850;2024-02-23T09:57:39;7.10;78.88
76040;SHT30;64736;50.462;4.850;2024-02-23T10:00:05;7.27;79.64
76040;SHT30;64736;50.462;4.850;2024-02-23T10:02:32;7.23;78.99
76040;SHT30;64736;50.462;4.850;2024-02-23T10:04:59;7.22;78.99
76040;SHT30;64736;50.462;4.850;2024-02-23T10:07:25;7.23;78.51
76040;SHT30;64736;50.462;4.850;2024-02-23T10:09:52;7.22;79.15
76040;SHT30;64736;50.462;4.850;2024-02-23T10:12:18;7.12;80.08
76040;SHT30;64736;50.462;4.850;2024-02-23T10:14:43;7.12;79.78
76040;SHT30;64736;50.462;4.850;2024-02-23T10:17:09;7.17;80.16
76040;SHT30;64736;50.462;4.850;2024-02-23T10:19:34;7.19;80.34
76040;SHT30;64736;50.462;4.850;2024-02-23T10:22:00;7.16;80.31
76040;SHT30;64736;50.462;4.850;2024-02-23T10:24:26;7.23;80.41
76040;SHT30;64736;50.462;4.850;2024-02-23T10:26:51;7.40;79.86
76040;SHT30;64736;50.462;4.850;2024-02-23T10:29:17;7.07;80.13
76040;SHT30;64736;50.462;4.850;2024-02-23T10:31:46;7.34;79.85
76040;SHT30;64736;50.462;4.850;2024-02-23T10:34:15;7.31;79.49
76040;SHT30;64736;50.462;4.850;2024-02-23T10:36:43;7.34;79.87
76040;SHT30;64736;50.462;4.850;2024-02-23T10:39:10;7.33;79.58
76040;SHT30;64736;50.462;4.850;2024-02-23T10:41:36;7.34;79.95
76040;SHT30;64736;50.462;4.850;2024-02-23T10:44:03;7.34;80.16
76040;SHT30;64736;50.462;4.850;2024-02-23T10:46:31;7.37;79.69
76040;SHT30;64736;50.462;4.850;2024-02-23T10:48:58;7.36;79.56
76040;SHT30;64736;50.462;4.850;2024-02-23T10:51:26;7.30;80.53
76040;SHT30;64736;50.462;4.850;2024-02-23T10:53:52;7.36;80.04
76040;SHT30;64736;50.462;4.850;2024-02-23T10:56:18;7.33;80.44
76040;SHT30;64736;50.462;4.850;2024-02-23T10:58:45;7.47;80.64
76040;SHT30;64736;50.462;4.850;2024-02-23T11:01:11;7.38;80.26
76040;SHT30;64736;50.462;4.850;2024-02-23T11:03:38;7.50;80.48
76040;SHT30;64736;50.462;4.850;2024-02-23T11:06:07;7.63;79.90
76040;SHT30;64736;50.462;4.850;2024-02-23T11:08:33;7.70;79.27
76040;SHT30;64736;50.462;4.850;2024-02-23T11:11:10;7.68;79.30
76040;SHT30;64736;50.462;4.850;2024-02-23T11:13:37;7.79;78.74
76040;SHT30;64736;50.462;4.850;2024-02-23T11:16:07;7.89;78.60
76040;SHT30;64736;50.462;4.850;2024-02-23T11:18:39;7.77;78.44
76040;SHT30;64736;50.462;4.850;2024-02-23T11:21:05;7.81;78.40
76040;SHT30;64736;50.462;4.850;2024-02-23T11:26:06;7.85;78.12
76040;SHT30;64736;50.462;4.850;2024-02-23T11:28:51;7.89;78.48
76040;SHT30;64736;50.462;4.850;2024-02-23T11:31:22;7.85;78.03
76040;SHT30;64736;50.462;4.850;2024-02-23T11:33:52;7.82;78.28
76040;SHT30;64736;50.462;4.850;2024-02-23T11:36:32;7.84;78.40
76040;SHT30;64736;50.462;4.850;2024-02-23T11:39:00;7.93;78.13
76040;SHT30;64736;50.462;4.850;2024-02-23T11:41:26;8.07;77.72
76040;SHT30;64736;50.462;4.850;2024-02-23T11:43:53;7.99;77.74
76040;SHT30;64736;50.462;4.850;2024-02-23T11:46:19;7.92;78.06
76040;SHT30;64736;50.462;4.850;2024-02-23T11:48:46;7.89;78.97
76040;SHT30;64736;50.462;4.850;2024-02-23T11:51:15;7.92;80.19
76040;SHT30;64736;50.462;4.850;2024-02-23T11:53:41;8.02;82.04
76040;SHT30;64736;50.462;4.850;2024-02-23T11:56:07;8.06;83.18
76040;SHT30;64736;50.462;4.850;2024-02-23T11:58:33;8.75;81.61
76040;SHT30;64736;50.462;4.850;2024-02-23T12:01:03;8.75;78.69
76040;SHT30;64736;50.462;4.850;2024-02-23T12:03:29;8.74;76.32
76040;SHT30;64736;50.462;4.850;2024-02-23T12:05:58;11.31;71.10
76040;SHT30;64736;50.462;4.850;2024-02-23T12:08:31;10.83;69.65
76040;SHT30;64736;50.462;4.850;2024-02-23T12:11:04;10.32;70.58
76040;SHT30;64736;50.462;4.850;2024-02-23T12:13:29;9.80;71.50
76040;SHT30;64736;50.462;4.850;2024-02-23T12:15:55;9.47;72.70
76040;SHT30;64736;50.462;4.850;2024-02-23T12:18:22;9.53;72.80
76040;SHT30;64736;50.462;4.850;2024-02-23T12:21:15;9.70;72.17
76040;SHT30;64736;50.462;4.850;2024-02-23T12:23:49;9.28;72.01
76040;SHT30;64736;50.462;4.850;2024-02-23T12:26:16;9.25;72.87
76040;SHT30;64736;50.462;4.850;2024-02-23T12:28:42;9.11;72.86
76040;SHT30;64736;50.462;4.850;2024-02-23T12:31:08;8.89;73.89
76040;SHT30;64736;50.462;4.850;2024-02-23T12:33:35;8.91;74.17
76040;SHT30;64736;50.462;4.850;2024-02-23T12:36:03;8.82;73.13
76040;SHT30;64736;50.462;4.850;2024-02-23T12:38:29;8.71;73.66
76040;SHT30;64736;50.462;4.850;2024-02-23T12:40:54;8.77;73.34
76040;SHT30;64736;50.462;4.850;2024-02-23T12:43:21;8.80;73.68
76040;SHT30;64736;50.462;4.850;2024-02-23T12:45:48;8.82;73.47
76040;SHT30;64736;50.462;4.850;2024-02-23T12:48:17;8.89;74.23
76040;SHT30;64736;50.462;4.850;2024-02-23T12:50:44;8.84;74.05
76040;SHT30;64736;50.462;4.850;2024-02-23T12:53:36;8.88;73.88
76040;SHT30;64736;50.462;4.850;2024-02-23T12:58:29;8.67;74.63
76040;SHT30;64736;50.462;4.850;2024-02-23T13:00:55;8.57;74.55
76040;SHT30;64736;50.462;4.850;2024-02-23T13:03:21;8.54;74.27
76040;SHT30;64736;50.462;4.850;2024-02-23T13:05:46;8.56;74.55
76040;SHT30;64736;50.462;4.850;2024-02-23T13:08:12;8.53;74.50
76040;SHT30;64736;50.462;4.850;2024-02-23T13:10:37;8.49;74.08
76040;SHT30;64736;50.462;4.850;2024-02-23T13:13:03;8.53;74.16
76040;SHT30;64736;50.462;4.850;2024-02-23T13:15:29;8.60;73.36
76040;SHT30;64736;50.462;4.850;2024-02-23T13:17:54;8.74;74.19
76040;SHT30;64736;50.462;4.850;2024-02-23T13:20:22;8.75;73.71
76040;SHT30;64736;50.462;4.850;2024-02-23T13:22:48;8.67;73.48
76040;SHT30;64736;50.462;4.850;2024-02-23T13:25:14;8.81;73.82
76040;SHT30;64736;50.462;4.850;2024-02-23T13:27:39;8.75;73.09
76040;SHT30;64736;50.462;4.850;2024-02-23T13:30:05;8.87;73.40
76040;SHT30;64736;50.462;4.850;2024-02-23T13:32:32;8.88;72.93
76040;SHT30;64736;50.462;4.850;2024-02-23T13:34:57;8.77;73.08
76040;SHT30;64736;50.462;4.850;2024-02-23T13:37:23;8.95;73.82
76040;SHT30;64736;50.462;4.850;2024-02-23T13:39:49;8.89;73.25
76040;SHT30;64736;50.462;4.850;2024-02-23T13:42:14;8.98;72.76
76040;SHT30;64736;50.462;4.850;2024-02-23T13:44:40;9.01;73.25
76040;SHT30;64736;50.462;4.850;2024-02-23T13:47:05;9.05;73.06
76040;SHT30;64736;50.462;4.850;2024-02-23T13:49:31;9.07;73.14
76040;SHT30;64736;50.462;4.850;2024-02-23T13:51:56;9.53;72.55
76040;SHT30;64736;50.462;4.850;2024-02-23T13:54:22;9.77;71.54
76040;SHT30;64736;50.462;4.850;2024-02-23T13:56:47;9.70;71.76
76040;SHT30;64736;50.462;4.850;2024-02-23T13:59:13;9.70;71.04
76040;SHT30;64736;50.462;4.850;2024-02-23T14:01:39;9.37;70.91
76040;SHT30;64736;50.462;4.850;2024-02-23T14:04:06;9.42;71.18
76040;SHT30;64736;50.462;4.850;2024-02-23T14:06:33;9.33;70.93
76040;SHT30;64736;50.462;4.850;2024-02-23T14:08:58;9.20;70.63
76040;SHT30;64736;50.462;4.850;2024-02-23T14:11:24;9.33;71.00
76040;SHT30;64736;50.462;4.850;2024-02-23T14:13:50;9.51;70.46
76040;SHT30;64736;50.462;4.850;2024-02-23T14:16:16;9.37;69.93
76040;SHT30;64736;50.462;4.850;2024-02-23T14:18:42;9.51;69.97
76040;SHT30;64736;50.462;4.850;2024-02-23T14:21:10;9.43;70.53
76040;SHT30;64736;50.462;4.850;2024-02-23T14:23:36;9.30;70.71
76040;SHT30;64736;50.462;4.850;2024-02-23T14:26:03;9.37;70.40
76040;SHT30;64736;50.462;4.850;2024-02-23T14:28:28;9.48;70.24
76040;SHT30;64736;50.462;4.850;2024-02-23T14:30:54;9.44;70.00
76040;SHT30;64736;50.462;4.850;2024-02-23T14:33:20;9.35;70.19
76040;SHT30;64736;50.462;4.850;2024-02-23T14:35:46;9.37;70.36
76040;SHT30;64736;50.462;4.850;2024-02-23T14:38:12;9.39;70.52
76040;SHT30;64736;50.462;4.850;2024-02-23T14:40:38;9.40;70.30
76040;SHT30;64736;50.462;4.850;2024-02-23T14:43:04;9.50;70.48
76040;SHT30;64736;50.462;4.850;2024-02-23T14:45:30;9.50;70.20
76040;SHT30;64736;50.462;4.850;2024-02-23T14:47:56;9.46;70.29
76040;SHT30;64736;50.462;4.850;2024-02-23T14:50:23;9.39;70.94
76040;SHT30;64736;50.462;4.850;2024-02-23T14:52:49;9.35;70.44
76040;SHT30;64736;50.462;4.850;2024-02-23T14:55:15;9.67;71.19
76040;SHT30;64736;50.462;4.850;2024-02-23T14:57:40;9.95;70.15
76040;SHT30;64736;50.462;4.850;2024-02-23T15:00:06;10.08;70.25
76040;SHT30;64736;50.462;4.850;2024-02-23T15:02:33;9.97;70.48
76040;SHT30;64736;50.462;4.850;2024-02-23T15:04:58;9.88;70.55
76040;SHT30;64736;50.462;4.850;2024-02-23T15:07:24;9.84;71.02
76040;SHT30;64736;50.462;4.850;2024-02-23T15:09:49;9.76;70.38
76040;SHT30;64736;50.462;4.850;2024-02-23T15:12:15;9.67;70.08
76040;SHT30;64736;50.462;4.850;2024-02-23T15:14:41;9.53;69.59
76040;SHT30;64736;50.462;4.850;2024-02-23T15:17:07;9.51;69.82
76040;SHT30;64736;50.462;4.850;2024-02-23T15:19:33;9.40;70.16
76040;SHT30;64736;50.462;4.850;2024-02-23T15:21:58;9.42;70.70
76040;SHT30;64736;50.462;4.850;2024-02-23T15:24:24;9.47;70.64
76040;SHT30;64736;50.462;4.850;2024-02-23T15:26:50;9.40;70.78
76040;SHT30;64736;50.462;4.850;2024-02-23T15:29:17;9.29;70.57
76040;SHT30;64736;50.462;4.850;2024-02-23T15:31:43;9.42;70.78
76040;SHT30;64736;50.462;4.850;2024-02-23T15:34:09;9.40;70.62
76040;SHT30;64736;50.462;4.850;2024-02-23T15:36:36;9.29;71.11
76040;SHT30;64736;50.462;4.850;2024-02-23T15:39:02;9.60;71.17
76040;SHT30;64736;50.462;4.850;2024-02-23T15:41:34;9.57;70.95
76040;SHT30;64736;50.462;4.850;2024-02-23T15:44:02;9.29;71.54